Rechercher aéroport 
image banner adimage banner adimage banner ad
image banner ad

KCNO - Chino

Situé à Chino, United States

ICAO - CNO, IATA - CNO

Données fournies par Airmate  

Information générale

Coordonnées: N33°58'29" W117°38'11"
Élévation : 650 feet MSL.
Variation magnétique : 14° East
Voir autres Aéroports à California

Données opérationnelles

Special qualification required
Heure actuelle UTC:
Heure actuelle locale:
Météo
METAR: KCNO 180753Z AUTO 28004KT 10SM CLR 18/13 A3005 RMK AO2 SLP169 T01780128 403060139
Voir NOTAMs / SUP AIP / TFR affectant cet aéroport [VIEW]
Fréquences de communication: [VIEW]

Pistes:

Identifiant RWYQFULongueur (ft)Largeur (ft)SurfaceLDA (ft)
0344°4919150ASPH
21224°4919150ASPH
08R89°7000150ASPH
26L269°7000150ASPH
08L89°4858150ASPH
26R269°4858150ASPH

Coordonnées de l'aéroport

Adresse: Chino United States

Autres services d'aviation

Écoles de pilotage

Alliance International Aviation

Alliance International Aviation
office@aiaflight.com+1(909)606-0747

Duke's Flying Club

Duke's Flying Club
dukes99@verizon.net+1(714)994-4299

Du Bois Aviation

Du Bois Aviation

Vue satellite de KCNO